Time;durP1;ratioP1;P1;durP2;ratioP2;P2;SDS_P1;SDS_P2;PMS_P1;PMS_P2;Temp;Humidity;BMP_temperature;BMP_pressure;BME280_temperature;BME280_humidity;BME280_pressure;Samples;Min_cycle;Max_cycle;Signal;HPM_P1;HPM_P2
2022/01/16 00:00:54;;;;;;;36.22;16.58;;;-1.40;99.90;;;;;;4967708;28;20407;-69
2022/01/16 00:06:04;;;;;;;32.03;15.20;;;-1.40;99.90;;;;;;4950397;28;20061;-69
2022/01/16 00:08:30;;;;;;;34.40;14.73;;;-1.40;99.90;;;;;;4950191;28;20399;-70
2022/01/16 00:10:55;;;;;;;35.38;14.68;;;-1.40;99.90;;;;;;4950850;28;20043;-70
2022/01/16 00:13:23;;;;;;;32.63;15.20;;;-1.40;99.90;;;;;;4957042;28;20069;-69
2022/01/16 00:15:49;;;;;;;38.47;16.33;;;-1.40;99.90;;;;;;4967847;28;20404;-70
2022/01/16 00:18:24;;;;;;;34.28;14.23;;;-1.40;99.90;;;;;;4955547;28;20030;-70
2022/01/16 00:20:50;;;;;;;36.05;15.05;;;-1.40;99.90;;;;;;4947897;28;20019;-70
2022/01/16 00:23:25;;;;;;;34.58;14.85;;;-1.40;99.90;;;;;;4953952;28;20027;-70
2022/01/16 00:25:55;;;;;;;31.98;15.57;;;-1.40;99.90;;;;;;4952448;28;20019;-69
2022/01/16 00:28:22;;;;;;;34.38;14.25;;;-1.40;99.90;;;;;;4964548;28;20042;-69
2022/01/16 00:30:48;;;;;;;35.30;15.32;;;-1.40;99.90;;;;;;4949214;28;20027;-70
2022/01/16 00:33:14;;;;;;;33.45;14.52;;;-1.40;99.90;;;;;;4949825;28;20453;-70
2022/01/16 00:35:40;;;;;;;33.63;15.30;;;-1.40;99.90;;;;;;4957377;28;20419;-70
2022/01/16 00:38:06;;;;;;;34.75;14.35;;;-1.40;99.90;;;;;;4961163;28;20062;-71
2022/01/16 00:40:32;;;;;;;30.92;13.88;;;-1.40;99.90;;;;;;4953027;28;20031;-70
2022/01/16 00:42:58;;;;;;;35.38;14.32;;;-1.40;99.90;;;;;;4973079;28;20022;-71
2022/01/16 00:45:25;;;;;;;30.42;14.57;;;-1.40;99.90;;;;;;4949160;28;20023;-70
2022/01/16 00:47:50;;;;;;;37.80;19.77;;;-1.40;99.90;;;;;;4953920;28;20059;-70
2022/01/16 00:50:16;;;;;;;47.78;22.52;;;-1.40;99.90;;;;;;4948398;28;20031;-70
2022/01/16 00:52:42;;;;;;;45.35;20.67;;;-1.50;99.90;;;;;;4957671;28;20023;-71
2022/01/16 00:55:08;;;;;;;47.03;22.85;;;-1.50;99.90;;;;;;4952797;28;20063;-70
2022/01/16 00:57:34;;;;;;;42.40;19.73;;;-1.50;99.90;;;;;;4952913;28;20078;-70
2022/01/16 01:00:00;;;;;;;39.42;17.58;;;-1.50;99.90;;;;;;4959062;28;20031;-70
2022/01/16 01:02:26;;;;;;;50.53;22.95;;;-1.50;99.90;;;;;;4969343;28;20078;-70
2022/01/16 01:04:52;;;;;;;50.08;22.90;;;-1.60;99.90;;;;;;4953637;28;20035;-71
2022/01/16 01:07:18;;;;;;;53.00;25.67;;;-1.60;99.90;;;;;;4957259;28;20051;-71
2022/01/16 01:09:44;;;;;;;49.55;24.92;;;-1.60;99.90;;;;;;4966393;28;20148;-72
2022/01/16 01:12:13;;;;;;;49.03;23.45;;;-1.70;99.90;;;;;;4951074;28;20035;-72
2022/01/16 01:14:53;;;;;;;52.28;24.45;;;-1.70;99.90;;;;;;4955787;28;20027;-71
2022/01/16 01:17:24;;;;;;;49.75;23.10;;;-1.80;99.90;;;;;;4961903;28;20530;-72
2022/01/16 01:19:50;;;;;;;54.40;24.10;;;-1.90;99.90;;;;;;4964911;28;20042;-72
2022/01/16 01:22:16;;;;;;;45.97;22.13;;;-2.00;99.90;;;;;;4957808;28;20031;-70
2022/01/16 01:24:41;;;;;;;49.47;25.05;;;-2.10;99.90;;;;;;4954114;28;20110;-70
2022/01/16 01:29:33;;;;;;;55.95;25.50;;;-2.20;99.90;;;;;;4954951;28;20051;-70
2022/01/16 01:32:00;;;;;;;54.35;26.83;;;-2.20;99.90;;;;;;4956129;28;20118;-70
2022/01/16 01:34:26;;;;;;;54.45;26.77;;;-2.20;99.90;;;;;;4953831;28;20031;-71
2022/01/16 01:36:52;;;;;;;48.03;23.75;;;-2.30;99.90;;;;;;4954752;28;20042;-69
2022/01/16 01:39:19;;;;;;;56.83;25.67;;;-2.30;99.90;;;;;;4951772;28;20700;-69
2022/01/16 01:41:47;;;;;;;56.85;25.20;;;-2.40;99.90;;;;;;4960189;28;20039;-69
2022/01/16 01:52:25;;;;;;;47.13;23.02;;;-2.60;99.90;;;;;;4945589;28;20503;-71
2022/01/16 01:54:52;;;;;;;52.95;24.20;;;-2.60;99.90;;;;;;4949449;28;20027;-71
2022/01/16 01:57:18;;;;;;;49.05;24.27;;;-2.60;99.90;;;;;;4963209;28;20039;-71
2022/01/16 01:59:44;;;;;;;45.38;20.90;;;-2.70;99.90;;;;;;4971959;28;20425;-71
2022/01/16 02:02:09;;;;;;;44.28;21.40;;;-2.70;99.90;;;;;;4975108;28;20050;-71
2022/01/16 02:04:35;;;;;;;47.75;24.38;;;-2.80;99.90;;;;;;4961301;28;20035;-71
2022/01/16 02:07:01;;;;;;;48.45;23.90;;;-2.80;99.90;;;;;;4959826;28;20023;-70
2022/01/16 02:09:27;;;;;;;47.13;22.80;;;-2.80;99.90;;;;;;4969697;28;20041;-70
2022/01/16 02:11:53;;;;;;;45.85;21.88;;;-2.80;99.90;;;;;;4950551;28;20412;-70
2022/01/16 02:28:09;;;;;;;49.67;23.10;;;-2.70;99.90;;;;;;4955394;28;20038;-71
2022/01/16 02:31:24;;;;;;;41.42;21.23;;;-2.70;99.90;;;;;;4954850;28;20037;-71
2022/01/16 02:34:29;;;;;;;;;;;;;;;;;;;;;
2022/01/16 02:35:50;;;;;;;51.30;24.27;;;-2.60;99.90;;;;;;4957401;28;20031;-71
2022/01/16 02:38:16;;;;;;;42.13;21.15;;;-2.60;99.90;;;;;;4960887;28;20038;-71
2022/01/16 02:40:58;;;;;;;44.78;21.65;;;-2.60;99.90;;;;;;4966844;28;20599;-71
2022/01/16 02:43:30;;;;;;;45.05;21.83;;;-2.60;99.90;;;;;;4973620;28;20029;-71
2022/01/16 02:47:01;;;;;;;44.05;22.67;;;-2.60;99.90;;;;;;4952120;28;20039;-71
2022/01/16 02:48:55;;;;;;;44.15;21.52;;;-2.60;99.90;;;;;;4939418;28;20051;-71
2022/01/16 02:51:24;;;;;;;43.10;21.48;;;-2.60;99.90;;;;;;4949818;28;20185;-70
2022/01/16 02:53:51;;;;;;;45.80;22.27;;;-2.70;99.90;;;;;;4953525;28;20031;-70
2022/01/16 02:56:19;;;;;;;47.05;23.40;;;-2.70;99.90;;;;;;4949171;28;20055;-70
2022/01/16 02:58:46;;;;;;;48.45;24.10;;;-2.70;99.90;;;;;;4946449;28;20035;-71
2022/01/16 03:01:12;;;;;;;43.15;21.05;;;-2.70;99.90;;;;;;4959222;28;20496;-70
2022/01/16 03:03:38;;;;;;;42.30;20.85;;;-2.80;99.90;;;;;;4956595;28;20071;-70
2022/01/16 03:06:04;;;;;;;43.78;21.90;;;-2.80;99.90;;;;;;4954425;28;20019;-71
2022/01/16 03:08:30;;;;;;;44.65;22.27;;;-2.90;99.90;;;;;;4951270;28;20508;-71
2022/01/16 03:13:31;;;;;;;47.35;22.58;;;-3.00;99.90;;;;;;4953775;28;20038;-71
2022/01/16 03:15:57;;;;;;;42.72;21.38;;;-3.00;99.90;;;;;;4956466;28;20027;-70
2022/01/16 03:23:33;;;;;;;46.42;21.70;;;-3.00;99.90;;;;;;4952346;28;21045;-70
2022/01/16 03:25:59;;;;;;;44.40;21.58;;;-3.00;99.90;;;;;;4960783;28;20020;-70
2022/01/16 03:28:26;;;;;;;45.63;22.42;;;-3.00;99.90;;;;;;4952706;28;20035;-71
2022/01/16 03:30:53;;;;;;;48.58;21.88;;;-3.10;99.90;;;;;;4954252;28;20437;-70
2022/01/16 03:33:20;;;;;;;41.83;21.55;;;-3.10;99.90;;;;;;4950646;28;20038;-70
2022/01/16 03:35:47;;;;;;;44.70;21.15;;;-3.20;99.90;;;;;;4951325;28;20038;-70
2022/01/16 03:38:13;;;;;;;47.20;23.52;;;-3.20;99.90;;;;;;4948553;28;20192;-70
2022/01/16 03:40:39;;;;;;;46.45;22.90;;;-3.20;99.90;;;;;;4955223;28;20782;-70
2022/01/16 03:43:14;;;;;;;42.50;22.60;;;-3.30;99.90;;;;;;4957002;28;20098;-70
2022/01/16 03:45:45;;;;;;;44.72;21.50;;;-3.30;99.90;;;;;;4954548;28;20058;-70
2022/01/16 03:48:12;;;;;;;45.55;21.73;;;-3.40;99.90;;;;;;4947626;28;20042;-70
2022/01/16 03:50:38;;;;;;;49.72;22.40;;;-3.40;99.90;;;;;;4953698;28;20122;-70
2022/01/16 03:53:04;;;;;;;48.97;24.45;;;-3.40;99.90;;;;;;4955526;28;20098;-70
2022/01/16 03:55:31;;;;;;;43.53;21.73;;;-3.40;99.90;;;;;;4967591;28;20035;-70
2022/01/16 03:57:57;;;;;;;44.05;21.95;;;-3.50;99.90;;;;;;4958256;28;20030;-70
2022/01/16 04:00:23;;;;;;;41.70;20.88;;;-3.50;99.90;;;;;;4972322;28;20031;-70
2022/01/16 04:02:49;;;;;;;39.50;20.98;;;-3.50;99.90;;;;;;4952717;28;20508;-70
2022/01/16 04:05:14;;;;;;;44.05;19.92;;;-3.50;99.90;;;;;;4955461;28;20030;-70
2022/01/16 04:07:40;;;;;;;41.65;21.48;;;-3.50;99.90;;;;;;4951637;28;20121;-70
2022/01/16 04:10:08;;;;;;;43.50;21.33;;;-3.50;99.90;;;;;;4969506;28;20039;-70
2022/01/16 04:12:37;;;;;;;43.70;20.98;;;-3.40;99.90;;;;;;4954245;28;20483;-70
2022/01/16 04:17:29;;;;;;;45.08;20.60;;;-3.40;99.90;;;;;;4951252;28;20043;-70
2022/01/16 04:19:54;;;;;;;41.42;19.55;;;-3.40;99.90;;;;;;4951462;28;20035;-70
2022/01/16 04:22:20;;;;;;;46.22;20.40;;;-3.40;99.90;;;;;;4966910;28;20027;-70
2022/01/16 04:24:46;;;;;;;42.78;19.95;;;-3.40;99.90;;;;;;4956220;28;20078;-70
2022/01/16 04:27:13;;;;;;;48.92;21.75;;;-3.30;99.90;;;;;;4950684;28;20034;-70
2022/01/16 04:29:41;;;;;;;44.25;19.42;;;-3.30;99.90;;;;;;4947140;28;20067;-70
2022/01/16 04:32:07;;;;;;;37.50;18.15;;;-3.40;99.90;;;;;;4953646;28;20038;-70
2022/01/16 04:34:32;;;;;;;37.35;18.98;;;-3.40;99.90;;;;;;4954702;28;20050;-70
2022/01/16 04:36:58;;;;;;;38.42;17.27;;;-3.30;99.90;;;;;;4959580;28;20023;-70
2022/01/16 04:39:31;;;;;;;37.88;18.98;;;-3.30;99.90;;;;;;4951000;28;20034;-70
2022/01/16 04:44:41;;;;;;;37.10;17.95;;;-3.40;99.90;;;;;;4952869;28;20037;-70
2022/01/16 04:47:08;;;;;;;36.90;18.52;;;-3.40;99.90;;;;;;4955078;28;20023;-70
2022/01/16 04:49:33;;;;;;;38.65;17.98;;;-3.40;99.90;;;;;;4955098;28;20031;-70
2022/01/16 04:51:59;;;;;;;37.15;19.33;;;-3.50;99.90;;;;;;4955632;28;20031;-71
2022/01/16 04:54:25;;;;;;;32.90;16.83;;;-3.40;99.90;;;;;;4966978;28;20033;-70
2022/01/16 04:56:52;;;;;;;33.47;17.13;;;-3.50;99.90;;;;;;4951075;28;20038;-70
2022/01/16 04:59:18;;;;;;;42.03;19.10;;;-3.50;99.90;;;;;;4952558;28;20114;-70
2022/01/16 05:01:44;;;;;;;38.08;18.30;;;-3.50;99.90;;;;;;4955150;28;20073;-70
2022/01/16 05:04:10;;;;;;;36.55;18.67;;;-3.40;99.90;;;;;;4954468;28;20039;-70
2022/01/16 05:06:36;;;;;;;34.38;18.42;;;-3.40;99.90;;;;;;4955535;28;20118;-70
2022/01/16 05:09:02;;;;;;;35.33;17.80;;;-3.40;99.90;;;;;;4957663;28;20125;-70
2022/01/16 05:11:28;;;;;;;33.63;17.58;;;-3.40;99.90;;;;;;4957369;28;20035;-70
2022/01/16 05:16:41;;;;;;;38.53;19.45;;;-3.40;99.90;;;;;;4954553;28;20035;-70
2022/01/16 05:19:14;;;;;;;30.60;16.70;;;-3.40;99.90;;;;;;4954010;28;20102;-71
2022/01/16 05:21:42;;;;;;;36.83;18.80;;;-3.40;99.90;;;;;;4951661;28;20388;-71
2022/01/16 05:24:10;;;;;;;34.00;17.00;;;-3.40;99.90;;;;;;4951401;28;20078;-70
2022/01/16 05:26:42;;;;;;;35.00;18.58;;;-3.40;99.90;;;;;;4953091;28;20039;-70
2022/01/16 05:29:10;;;;;;;33.55;17.58;;;-3.40;99.90;;;;;;4949326;28;20102;-72
2022/01/16 05:31:36;;;;;;;33.40;16.42;;;-3.40;99.90;;;;;;4954588;28;20066;-72
2022/01/16 05:34:02;;;;;;;36.83;18.15;;;-3.50;99.90;;;;;;4970696;28;20082;-72
2022/01/16 05:36:28;;;;;;;33.00;17.95;;;-3.50;99.90;;;;;;4959462;28;20054;-72
2022/01/16 05:38:54;;;;;;;33.85;16.85;;;-3.50;99.90;;;;;;4952162;28;20062;-70
2022/01/16 05:41:21;;;;;;;36.50;17.90;;;-3.60;99.90;;;;;;4953491;28;20031;-71
2022/01/16 05:43:48;;;;;;;34.17;18.13;;;-3.60;99.90;;;;;;4954668;28;20053;-72
2022/01/16 05:46:14;;;;;;;34.50;17.90;;;-3.70;99.90;;;;;;4959716;28;20029;-71
2022/01/16 05:48:40;;;;;;;30.50;16.23;;;-3.70;99.90;;;;;;4974233;28;20121;-70
2022/01/16 05:51:05;;;;;;;32.30;16.02;;;-3.80;99.90;;;;;;4953179;28;21429;-71
2022/01/16 05:53:31;;;;;;;29.92;16.38;;;-3.80;99.90;;;;;;4953381;28;20445;-71
2022/01/16 05:55:57;;;;;;;35.42;16.25;;;-3.80;99.90;;;;;;4954289;28;20408;-70
2022/01/16 05:58:22;;;;;;;33.65;16.52;;;-3.90;99.90;;;;;;4958178;28;20049;-70
2022/01/16 06:00:48;;;;;;;32.88;16.42;;;-3.90;99.90;;;;;;4949660;28;20054;-70
2022/01/16 06:03:14;;;;;;;29.83;15.48;;;-3.90;99.90;;;;;;4956946;28;20020;-70
2022/01/16 06:05:40;;;;;;;32.00;15.68;;;-3.90;99.90;;;;;;4953292;28;20103;-71
2022/01/16 06:08:09;;;;;;;29.58;15.90;;;-4.00;99.90;;;;;;4953193;28;20122;-70
2022/01/16 06:10:35;;;;;;;30.50;16.15;;;-3.90;99.90;;;;;;4957083;28;20015;-65
2022/01/16 06:13:05;;;;;;;31.70;15.90;;;-3.90;99.90;;;;;;4959109;28;20030;-64
2022/01/16 06:15:31;;;;;;;33.63;16.95;;;-3.70;99.90;;;;;;4961192;28;20019;-71
2022/01/16 06:17:57;;;;;;;32.03;15.80;;;-3.60;99.90;;;;;;4948627;28;20031;-72
2022/01/16 06:20:23;;;;;;;36.13;17.17;;;-3.60;99.90;;;;;;4963710;28;20086;-72
2022/01/16 06:22:49;;;;;;;37.25;17.20;;;-3.60;99.90;;;;;;4950177;28;20024;-72
2022/01/16 06:25:15;;;;;;;33.80;15.13;;;-3.60;99.90;;;;;;4951830;28;20078;-72
2022/01/16 06:27:41;;;;;;;31.65;14.40;;;-3.60;99.90;;;;;;4953170;28;20082;-73
2022/01/16 06:30:10;;;;;;;31.25;14.85;;;-3.60;99.90;;;;;;4951922;28;20037;-72
2022/01/16 06:32:36;;;;;;;27.83;13.77;;;-3.50;99.90;;;;;;4948353;28;20090;-72
2022/01/16 06:35:03;;;;;;;32.03;14.80;;;-3.60;99.90;;;;;;4946700;28;20043;-73
2022/01/16 06:37:28;;;;;;;26.90;12.77;;;-3.60;99.90;;;;;;4948864;28;20046;-72
2022/01/16 06:39:54;;;;;;;31.90;14.43;;;-3.60;99.90;;;;;;4952632;28;20023;-72
2022/01/16 06:42:20;;;;;;;34.33;14.00;;;-3.60;99.90;;;;;;4951832;28;20365;-72
2022/01/16 06:44:45;;;;;;;30.98;14.60;;;-3.50;99.90;;;;;;4952811;28;20463;-72
2022/01/16 06:47:11;;;;;;;33.53;13.95;;;-3.50;99.90;;;;;;4953729;28;20031;-72
2022/01/16 06:49:37;;;;;;;33.95;13.93;;;-3.50;99.90;;;;;;4955153;28;20361;-71
2022/01/16 06:52:03;;;;;;;29.27;13.27;;;-3.50;99.90;;;;;;4952323;28;20508;-72
2022/01/16 06:54:29;;;;;;;30.80;12.90;;;-3.50;99.90;;;;;;4954694;28;20118;-72
2022/01/16 06:56:55;;;;;;;32.22;13.85;;;-3.50;99.90;;;;;;4947332;28;20038;-72
2022/01/16 06:59:20;;;;;;;26.75;11.43;;;-3.40;99.90;;;;;;4952221;28;20039;-72
2022/01/16 07:01:46;;;;;;;34.45;13.45;;;-3.40;99.90;;;;;;4948673;28;20035;-72
2022/01/16 07:04:12;;;;;;;23.02;11.15;;;-3.40;99.90;;;;;;4952890;28;20042;-72
2022/01/16 07:06:37;;;;;;;26.75;12.20;;;-3.40;99.90;;;;;;4964696;28;20063;-72
2022/01/16 07:09:03;;;;;;;24.15;10.82;;;-3.30;99.90;;;;;;4955551;28;20050;-72
2022/01/16 07:11:29;;;;;;;21.90;10.65;;;-3.30;99.90;;;;;;4969620;28;20530;-72
2022/01/16 07:13:54;;;;;;;25.88;11.10;;;-3.20;99.90;;;;;;4964000;28;20035;-73
2022/01/16 07:16:21;;;;;;;25.13;11.85;;;-3.10;99.90;;;;;;4952129;28;20031;-72
2022/01/16 07:18:47;;;;;;;25.00;10.75;;;-3.10;99.90;;;;;;4948164;28;20066;-72
2022/01/16 07:21:13;;;;;;;23.63;11.68;;;-3.00;99.90;;;;;;4946972;28;20038;-72
2022/01/16 07:23:44;;;;;;;28.38;12.02;;;-2.90;99.90;;;;;;4953288;28;20046;-72
2022/01/16 07:26:11;;;;;;;30.00;12.43;;;-2.80;99.90;;;;;;4971048;28;20027;-72
2022/01/16 07:28:37;;;;;;;26.55;12.20;;;-2.60;99.90;;;;;;4957847;28;20413;-72
2022/01/16 07:31:03;;;;;;;26.90;11.93;;;-2.50;99.90;;;;;;4954893;28;20101;-71
2022/01/16 07:33:29;;;;;;;29.80;12.55;;;-2.40;99.90;;;;;;4952708;28;20035;-72
2022/01/16 07:35:55;;;;;;;27.77;11.88;;;-2.20;99.90;;;;;;4948767;28;20154;-72
2022/01/16 07:38:21;;;;;;;23.80;11.55;;;-2.20;99.90;;;;;;4953255;28;20411;-72
2022/01/16 07:40:47;;;;;;;24.27;11.70;;;-2.20;99.90;;;;;;4954723;28;20105;-72
2022/01/16 07:43:13;;;;;;;25.10;12.25;;;-2.10;99.90;;;;;;4952060;28;20020;-72
2022/01/16 07:45:39;;;;;;;25.00;11.45;;;-2.00;99.90;;;;;;4952264;28;20043;-72
2022/01/16 07:48:07;;;;;;;28.95;12.85;;;-1.90;99.90;;;;;;4949410;28;20053;-73
2022/01/16 07:50:33;;;;;;;26.48;11.77;;;-1.80;99.90;;;;;;4948387;28;20035;-72
2022/01/16 07:52:59;;;;;;;23.63;10.52;;;-1.70;99.90;;;;;;4956186;28;20082;-72
2022/01/16 07:55:26;;;;;;;26.80;12.68;;;-1.60;99.90;;;;;;4944839;28;20449;-71
2022/01/16 07:57:56;;;;;;;29.40;12.57;;;-1.40;99.90;;;;;;4951503;28;20023;-72
2022/01/16 08:00:22;;;;;;;24.98;11.38;;;-1.30;99.90;;;;;;4948992;28;21848;-72
2022/01/16 08:02:49;;;;;;;29.70;13.23;;;-1.20;99.90;;;;;;4944404;28;20129;-73
2022/01/16 08:05:16;;;;;;;32.50;14.00;;;-1.20;99.90;;;;;;4946945;28;20074;-72
2022/01/16 08:07:42;;;;;;;33.17;15.18;;;-1.00;99.90;;;;;;4959371;28;20614;-72
2022/01/16 08:10:08;;;;;;;34.97;14.88;;;-1.00;99.90;;;;;;4945940;28;20027;-72
2022/01/16 08:12:34;;;;;;;31.75;14.05;;;-0.90;99.90;;;;;;4950725;28;20023;-72
2022/01/16 08:15:00;;;;;;;33.58;14.45;;;-0.90;99.90;;;;;;4949990;28;20035;-72
2022/01/16 08:17:26;;;;;;;33.20;15.20;;;-0.70;99.90;;;;;;4963748;28;20054;-72
2022/01/16 08:19:52;;;;;;;34.35;15.65;;;-0.60;99.90;;;;;;4946191;28;20293;-72
2022/01/16 08:22:17;;;;;;;33.30;15.07;;;-0.50;99.90;;;;;;4964402;28;20019;-72
2022/01/16 08:24:43;;;;;;;31.15;14.40;;;-0.50;99.90;;;;;;4969499;28;20042;-72
2022/01/16 08:27:09;;;;;;;28.17;13.43;;;-0.40;99.90;;;;;;4961712;28;20036;-73
2022/01/16 08:29:35;;;;;;;33.33;14.70;;;-0.30;99.90;;;;;;4950821;28;20038;-73
2022/01/16 08:32:00;;;;;;;30.02;14.73;;;-0.20;99.90;;;;;;4949163;28;20035;-71
2022/01/16 08:34:26;;;;;;;30.17;14.45;;;-0.10;99.90;;;;;;4955521;28;20504;-71
2022/01/16 08:36:52;;;;;;;31.65;14.48;;;0.00;99.90;;;;;;4951984;28;20023;-72
2022/01/16 08:39:17;;;;;;;28.25;14.07;;;0.00;99.90;;;;;;4953868;28;20032;-72
2022/01/16 08:41:43;;;;;;;29.20;13.57;;;0.10;99.90;;;;;;4954240;28;20027;-71
2022/01/16 08:44:09;;;;;;;30.30;13.95;;;0.20;99.90;;;;;;4967592;28;20038;-71
2022/01/16 08:46:35;;;;;;;26.05;13.00;;;0.30;99.90;;;;;;4953205;28;20039;-71
2022/01/16 08:49:00;;;;;;;27.92;13.77;;;0.30;99.90;;;;;;4950925;28;20039;-70
2022/01/16 08:51:27;;;;;;;27.90;13.88;;;0.40;99.90;;;;;;4948543;28;20035;-73
2022/01/16 08:53:52;;;;;;;28.02;12.80;;;0.40;99.90;;;;;;4958775;28;20479;-72
2022/01/16 08:56:18;;;;;;;26.75;12.82;;;0.50;99.90;;;;;;4949525;28;20028;-72
2022/01/16 08:58:44;;;;;;;24.67;12.40;;;0.60;99.90;;;;;;4956008;28;20649;-71
2022/01/16 09:01:10;;;;;;;24.75;12.07;;;0.60;99.90;;;;;;4950611;28;20031;-72
2022/01/16 09:03:38;;;;;;;26.80;13.77;;;0.70;99.90;;;;;;4952926;28;20031;-72
2022/01/16 09:06:03;;;;;;;25.30;13.40;;;0.70;99.90;;;;;;4959950;28;20034;-72
2022/01/16 09:08:29;;;;;;;27.92;12.93;;;0.80;99.90;;;;;;4955186;28;20035;-72
2022/01/16 09:10:55;;;;;;;28.48;14.25;;;0.90;99.90;;;;;;4955155;28;20067;-72
2022/01/16 09:13:21;;;;;;;28.60;13.20;;;0.90;99.90;;;;;;4951463;28;20027;-72
2022/01/16 09:15:49;;;;;;;26.60;13.95;;;1.00;99.90;;;;;;4954742;28;20047;-72
2022/01/16 09:18:16;;;;;;;33.95;14.73;;;1.00;99.90;;;;;;4952041;28;20484;-73
2022/01/16 09:20:43;;;;;;;31.90;14.93;;;1.10;99.90;;;;;;4951203;28;20023;-72
2022/01/16 09:23:09;;;;;;;27.40;13.57;;;1.10;99.90;;;;;;4959776;28;20027;-72
2022/01/16 09:25:35;;;;;;;32.17;14.57;;;1.20;99.90;;;;;;4947174;28;20067;-71
2022/01/16 09:28:02;;;;;;;33.10;15.40;;;1.30;99.90;;;;;;4941458;28;20031;-73
2022/01/16 09:30:30;;;;;;;28.63;13.90;;;1.40;99.90;;;;;;4946640;28;20041;-72
2022/01/16 09:32:56;;;;;;;27.83;15.02;;;1.40;99.90;;;;;;4951468;28;20031;-73
2022/01/16 09:35:22;;;;;;;30.48;14.43;;;1.40;99.90;;;;;;4949561;28;20413;-72
2022/01/16 09:37:49;;;;;;;31.33;14.65;;;1.50;99.90;;;;;;4960655;28;21629;-72
2022/01/16 09:40:18;;;;;;;33.70;14.75;;;1.50;99.90;;;;;;4961259;28;20043;-73
2022/01/16 09:42:45;;;;;;;34.83;15.18;;;1.60;99.90;;;;;;4949275;28;20039;-71
2022/01/16 09:45:13;;;;;;;32.13;14.20;;;1.70;99.90;;;;;;4937222;28;21026;-72
2022/01/16 09:47:39;;;;;;;32.92;15.75;;;1.70;99.90;;;;;;4952675;28;20019;-71
2022/01/16 09:50:07;;;;;;;31.17;15.65;;;1.80;99.90;;;;;;4950794;28;20041;-74
2022/01/16 09:52:38;;;;;;;34.38;15.68;;;1.90;99.90;;;;;;4944836;28;20042;-72
2022/01/16 09:55:05;;;;;;;28.98;15.50;;;1.90;99.90;;;;;;4965688;28;20089;-71
2022/01/16 09:57:31;;;;;;;33.80;15.27;;;2.00;99.90;;;;;;4960992;28;20039;-71
2022/01/16 09:59:58;;;;;;;33.03;15.13;;;2.00;99.90;;;;;;4950847;28;20045;-72
2022/01/16 10:02:23;;;;;;;35.05;16.08;;;2.10;99.90;;;;;;4953778;28;20034;-72
2022/01/16 10:04:49;;;;;;;37.60;16.77;;;2.10;99.90;;;;;;4946803;28;20023;-72
2022/01/16 10:07:17;;;;;;;33.63;17.70;;;2.10;99.90;;;;;;4953902;28;20023;-72
2022/01/16 10:10:04;;;;;;;30.45;15.70;;;2.10;99.90;;;;;;4946470;28;20043;-72
2022/01/16 10:12:32;;;;;;;33.55;17.10;;;2.20;99.90;;;;;;4967605;28;20396;-72
2022/01/16 10:15:00;;;;;;;33.13;16.17;;;2.30;99.90;;;;;;4947212;28;20051;-70
2022/01/16 10:17:26;;;;;;;35.67;16.73;;;2.40;99.90;;;;;;4951792;28;20041;-73
2022/01/16 10:20:03;;;;;;;32.97;15.38;;;2.40;99.90;;;;;;4953571;28;20472;-73
2022/01/16 10:22:40;;;;;;;33.67;16.27;;;2.50;99.90;;;;;;4949726;28;20399;-72
2022/01/16 10:25:07;;;;;;;37.65;17.30;;;2.50;99.90;;;;;;4947439;28;20047;-74
2022/01/16 10:27:35;;;;;;;30.33;15.15;;;2.50;99.90;;;;;;4943228;28;20468;-73
2022/01/16 10:30:07;;;;;;;34.92;16.35;;;2.50;99.90;;;;;;4950105;28;20396;-72
2022/01/16 10:32:35;;;;;;;40.38;17.35;;;2.60;99.90;;;;;;4949803;28;20027;-75
2022/01/16 10:35:09;;;;;;;35.65;17.00;;;2.60;99.90;;;;;;4956231;28;20024;-72
2022/01/16 10:37:34;;;;;;;;;;;2.60;99.90;;;;;;4960665;28;20090;-73
2022/01/16 10:40:06;;;;;;;36.03;16.50;;;2.60;99.90;;;;;;4955971;28;20919;-73
2022/01/16 10:42:33;;;;;;;28.40;15.27;;;2.60;99.90;;;;;;4954210;28;20031;-73
2022/01/16 10:45:12;;;;;;;35.80;18.23;;;2.70;99.90;;;;;;4968093;28;20090;-72
2022/01/16 10:47:54;;;;;;;29.38;15.32;;;2.70;99.90;;;;;;4953895;28;20020;-73
2022/01/16 10:50:25;;;;;;;32.55;15.63;;;2.70;99.90;;;;;;4956496;28;20030;-72
2022/01/16 10:53:07;;;;;;;30.63;15.75;;;2.70;99.90;;;;;;4954658;28;20034;-73
2022/01/16 10:55:43;;;;;;;33.90;16.27;;;2.70;99.90;;;;;;4954972;28;20035;-73
2022/01/16 10:58:12;;;;;;;31.88;15.90;;;2.80;99.90;;;;;;4960483;28;20034;-73
2022/01/16 11:00:43;;;;;;;37.25;16.70;;;2.80;99.90;;;;;;4951502;28;20034;-71
2022/01/16 11:03:11;;;;;;;37.35;16.83;;;2.80;99.90;;;;;;4948996;28;20554;-71
2022/01/16 11:05:40;;;;;;;33.05;16.10;;;2.90;99.90;;;;;;4957543;28;20023;-70
2022/01/16 11:08:12;;;;;;;35.55;16.13;;;2.90;99.90;;;;;;4962897;28;20062;-71
2022/01/16 11:10:42;;;;;;;29.20;15.75;;;2.90;99.90;;;;;;4961845;28;20027;-71
2022/01/16 11:13:11;;;;;;;32.47;16.75;;;2.90;99.90;;;;;;4957315;28;20384;-73
2022/01/16 11:15:39;;;;;;;32.58;16.40;;;2.90;99.90;;;;;;4956251;28;20069;-71
2022/01/16 11:18:07;;;;;;;32.47;16.55;;;3.00;99.90;;;;;;4957435;28;20051;-72
2022/01/16 11:20:35;;;;;;;35.72;16.67;;;3.00;99.90;;;;;;4957739;28;20031;-72
2022/01/16 11:23:07;;;;;;;34.67;17.52;;;3.00;99.90;;;;;;4956107;28;20101;-72
2022/01/16 11:25:36;;;;;;;31.70;16.48;;;3.00;99.90;;;;;;4958877;28;20024;-71
2022/01/16 11:28:13;;;;;;;33.45;16.35;;;3.00;99.90;;;;;;4956008;28;20085;-72
2022/01/16 11:30:44;;;;;;;31.33;16.33;;;3.10;99.90;;;;;;5008774;23;20050;-70
2022/01/16 11:33:11;;;;;;;32.67;16.60;;;3.10;99.90;;;;;;5008082;28;20029;-70
2022/01/16 11:35:42;;;;;;;30.02;15.00;;;3.00;99.90;;;;;;5013849;28;20480;-70
2022/01/16 11:38:09;;;;;;;36.50;17.15;;;3.10;99.90;;;;;;5008935;28;20390;-70
2022/01/16 11:40:45;;;;;;;30.38;16.73;;;3.20;99.90;;;;;;4999234;28;20553;-72
2022/01/16 11:43:15;;;;;;;34.15;16.48;;;3.30;99.90;;;;;;4995443;28;20030;-70
2022/01/16 11:45:45;;;;;;;31.27;15.70;;;3.40;99.90;;;;;;4992657;28;20036;-69
2022/01/16 11:48:11;;;;;;;31.30;17.50;;;3.60;99.90;;;;;;4993995;28;21510;-71
2022/01/16 11:50:37;;;;;;;33.70;16.17;;;3.90;99.90;;;;;;4992638;28;20050;-70
2022/01/16 11:53:03;;;;;;;31.92;14.68;;;4.00;99.90;;;;;;4990073;28;20073;-69
2022/01/16 11:55:35;;;;;;;30.42;15.63;;;4.00;99.90;;;;;;4992596;28;20148;-71
2022/01/16 11:58:01;;;;;;;32.30;16.35;;;4.10;99.90;;;;;;4993122;28;20044;-70
2022/01/16 12:00:43;;;;;;;30.95;15.05;;;4.20;99.90;;;;;;4989209;28;20035;-70
2022/01/16 12:03:35;;;;;;;30.77;15.38;;;4.30;99.90;;;;;;4990325;28;20022;-70
2022/01/16 12:06:39;;;;;;;28.52;15.30;;;4.40;99.90;;;;;;4990732;28;20042;-70
2022/01/16 12:09:13;;;;;;;28.50;15.10;;;4.50;99.90;;;;;;4914375;29;20028;-71
2022/01/16 12:11:38;;;;;;;;;;;4.60;99.90;;;;;;4900440;29;20063;-71
2022/01/16 12:14:04;;;;;;;28.98;14.48;;;4.60;99.90;;;;;;4962684;28;19956;-71
2022/01/16 12:16:38;;;;;;;29.50;15.40;;;4.60;99.90;;;;;;4993320;28;20034;-71
2022/01/16 12:19:43;;;;;;;26.00;14.43;;;4.60;99.90;;;;;;4990237;28;20019;-70
2022/01/16 12:22:09;;;;;;;;;;;4.50;99.90;;;;;;4986826;28;20019;-71
2022/01/16 12:24:40;;;;;;;30.33;14.38;;;4.50;99.90;;;;;;4991523;28;20479;-71
2022/01/16 12:27:28;;;;;;;30.33;14.18;;;4.40;99.90;;;;;;4991951;28;20072;-71
2022/01/16 12:30:23;;;;;;;30.50;14.68;;;4.40;99.90;;;;;;4988625;28;20051;-71
2022/01/16 12:32:53;;;;;;;29.80;14.80;;;4.30;99.90;;;;;;4991605;28;20122;-72
2022/01/16 12:35:40;;;;;;;26.95;14.95;;;4.30;99.90;;;;;;4989447;28;20030;-71
2022/01/16 12:38:09;;;;;;;30.92;15.02;;;4.30;99.90;;;;;;4989490;28;20029;-71
2022/01/16 12:40:38;;;;;;;28.17;15.05;;;4.30;99.90;;;;;;4993527;28;20557;-71
2022/01/16 12:43:08;;;;;;;32.47;15.88;;;4.30;99.90;;;;;;4991032;28;20434;-71
2022/01/16 12:45:41;;;;;;;29.13;14.07;;;4.30;99.90;;;;;;4999118;28;20487;-71
2022/01/16 12:48:08;;;;;;;27.55;14.82;;;4.30;99.90;;;;;;4995365;28;20101;-72
2022/01/16 12:50:35;;;;;;;32.40;15.10;;;4.30;99.90;;;;;;4995404;28;20029;-72
2022/01/16 12:53:01;;;;;;;30.48;15.88;;;4.30;99.90;;;;;;4990159;28;20395;-72
2022/01/16 12:55:29;;;;;;;29.55;15.10;;;4.30;99.90;;;;;;4993807;28;20037;-71
2022/01/16 12:58:13;;;;;;;29.98;14.35;;;4.30;99.90;;;;;;4994371;28;20030;-71
2022/01/16 13:01:05;;;;;;;33.03;15.77;;;4.50;99.90;;;;;;4994725;28;20042;-71
2022/01/16 13:03:33;;;;;;;35.47;16.52;;;4.60;99.90;;;;;;4989451;28;20411;-71
2022/01/16 13:06:20;;;;;;;34.13;17.88;;;4.80;99.90;;;;;;4995024;28;20511;-71
2022/01/16 13:09:07;;;;;;;27.58;14.75;;;4.90;99.90;;;;;;4994025;28;20408;-71
2022/01/16 13:11:41;;;;;;;26.55;14.45;;;4.90;99.90;;;;;;5007697;28;20057;-72
2022/01/16 13:14:09;;;;;;;;;;;5.00;99.90;;;;;;5004496;28;20438;-71
2022/01/16 13:16:37;;;;;;;25.17;13.05;;;5.00;99.90;;;;;;4998659;28;19917;-71
2022/01/16 13:19:11;;;;;;;22.80;12.80;;;5.10;99.90;;;;;;4996541;28;20081;-72
2022/01/16 13:21:49;;;;;;;22.20;11.80;;;5.10;99.90;;;;;;4989747;28;20045;-71